Airfield :
LOGIN :

Register | Disclaimer

   EN    FR    IT 

 










Legend :    VFR   Marginal VFR   IFR   Intensive IFR   Very Intensive IFR
Visi :
Ceiling :
>= 8 km
>= 3000ft
5 to 8 km
1000 to 3000 ft
1500m to 5 km
500 to 1000 ft
800 to 1500m
200 to 500 ft
< 800m
< 200 ft
Symbols :   Thunderstorms  Fog  Heavy snow  Heavy precipitations  Wind > 20 kt
SIGMETs :     Misc.  Thunderstorms  Icing  Turbulence  Mountain Waves  Volcanic Ashes







- Airport Elevation : 82 ft
- IATA code : QIE
- Download approach charts


LFMI - Istres

CURRENT METAR :
  • 160700Z AUTO 03004KT CAVOK 16/16 Q1016 TEMPO 4000 SHRA

EXPIRED METARs :
  • 160630Z AUTO 02005KT CAVOK 16/16 Q1016 TEMPO 4000 SHRA
  • 160600Z AUTO 02004KT CAVOK 16/16 Q1015 TEMPO 4000 SHRA
  • 160530Z AUTO 04003KT 8000 -RA NSC 16/16 Q1015 TEMPO 4000 SHRA
  • 160500Z AUTO 05005KT 9000 NSC 16/16 Q1015 TEMPO 4000 SHRA FEW010CB BKN014
  • 160430Z AUTO 04005KT 9000 -RA NSC 16/16 Q1015 TEMPO 10013KT 4000 SHRA FEW010CB BKN014

TAF AMD TAF LFMI
Valid from the 16 at 05:00 until the 17 at 03:00 UTC


160552Z 1605/1703 02005KT 9999 BKN050
TEMPO 1605/1606 3000 RA FEW010CB BKN014
BECMG 1606/1609 VRB03KT
PROB40
TEMPO 1606/1618 4000 SHRA
No reported NOTAMs for that airfield.



MET'MAP, your aeronautical weather chart ! - Copyright ORBIFLY December 2007 - Disclaimer

ORBIFLY MET'MAP TEAM :

Programming & Development : Alexandra Zaïnal
Concept & Development : Baudouin d'Aumeries
Co-Development & Prog : Marc-Olivier Méhu
Technical & hardware support : Manuel Goepfert

Contact : metmap@orbifly.com




SOURCES & CREDITS :

   NOAA